Time;durP1;ratioP1;P1;durP2;ratioP2;P2;SDS_P1;SDS_P2;PMS_P1;PMS_P2;Temp;Humidity;BMP_temperature;BMP_pressure;BME280_temperature;BME280_humidity;BME280_pressure;Samples;Min_cycle;Max_cycle;Signal;HPM_P1;HPM_P2
2021/09/02 00:03:37;;;;;;;0.10;0.10;;;;;;;12.65;96.19;102844.63;10494164;28;20028;-60
2021/09/02 00:08:38;;;;;;;0.10;0.10;;;;;;;12.58;96.08;102846.06;10494228;28;20094;-59
2021/09/02 00:13:38;;;;;;;0.10;0.10;;;;;;;12.53;96.26;102831.38;10494611;28;20036;-60
2021/09/02 00:18:38;;;;;;;0.10;0.10;;;;;;;12.47;96.29;102840.75;10494109;28;20302;-61
2021/09/02 00:23:39;;;;;;;0.10;0.10;;;;;;;12.44;96.88;102840.97;10493660;28;20028;-61
2021/09/02 00:28:39;;;;;;;0.10;0.10;;;;;;;12.41;96.94;102841.22;10493727;28;20355;-60
2021/09/02 00:33:39;;;;;;;0.10;0.10;;;;;;;12.39;97.27;102843.16;10493048;28;20020;-60
2021/09/02 00:38:40;;;;;;;0.10;0.10;;;;;;;12.40;97.47;102837.72;10493301;28;20081;-60
2021/09/02 00:43:41;;;;;;;0.10;0.10;;;;;;;12.48;97.53;102837.13;10475050;28;20029;-60
2021/09/02 00:48:44;;;;;;;0.10;0.10;;;;;;;12.58;97.81;102829.19;10511548;28;20044;-60
2021/09/02 00:53:50;;;;;;;0.10;0.10;;;;;;;12.68;97.49;102825.66;10534823;28;20020;-60
2021/09/02 00:58:50;;;;;;;0.05;0.05;;;;;;;12.76;97.40;102810.81;10534537;28;20024;-61
2021/09/02 01:03:50;;;;;;;0.10;0.10;;;;;;;12.78;97.45;102814.22;10539010;28;20024;-60
2021/09/02 01:08:51;;;;;;;0.10;0.10;;;;;;;12.77;97.04;102817.84;10542661;28;20028;-59
2021/09/02 01:13:51;;;;;;;0.10;0.10;;;;;;;12.78;96.98;102822.25;10541911;28;20027;-60
2021/09/02 01:18:51;;;;;;;0.10;0.10;;;;;;;12.75;97.41;102814.47;10542424;28;20066;-59
2021/09/02 01:23:52;;;;;;;0.10;0.10;;;;;;;12.79;97.33;102815.91;10541545;28;20068;-61
2021/09/02 01:28:52;;;;;;;0.10;0.10;;;;;;;12.79;97.06;102818.56;10541616;28;20474;-61
2021/09/02 01:33:52;;;;;;;0.10;0.10;;;;;;;12.72;96.76;102806.69;10541425;28;20027;-60
2021/09/02 01:38:53;;;;;;;0.10;0.10;;;;;;;12.65;96.71;102809.88;10542269;28;20024;-61
2021/09/02 01:43:53;;;;;;;0.10;0.10;;;;;;;12.65;97.00;102815.22;10540865;28;20028;-61
2021/09/02 01:48:54;;;;;;;0.00;0.00;;;;;;;12.73;96.93;102816.41;10541221;28;20262;-61
2021/09/02 01:53:55;;;;;;;0.10;0.10;;;;;;;12.80;97.29;102809.56;10540353;28;20027;-60
2021/09/02 01:58:56;;;;;;;0.10;0.10;;;;;;;12.80;96.75;102814.91;10540516;28;20118;-59
2021/09/02 02:03:56;;;;;;;0.10;0.10;;;;;;;12.70;96.66;102812.16;10540077;28;20016;-60
2021/09/02 02:08:56;;;;;;;0.10;0.10;;;;;;;12.64;96.91;102809.97;10540660;28;20078;-61
2021/09/02 02:13:56;;;;;;;0.10;0.10;;;;;;;12.57;96.67;102822.16;10538388;28;20386;-60
2021/09/02 02:18:57;;;;;;;0.10;0.10;;;;;;;12.53;97.18;102818.84;10521388;28;20116;-60
2021/09/02 02:23:57;;;;;;;0.10;0.10;;;;;;;12.60;97.70;102814.72;10539612;28;20024;-61
2021/09/02 02:28:57;;;;;;;0.03;0.03;;;;;;;12.65;97.62;102807.19;10539354;28;20450;-61
2021/09/02 02:33:57;;;;;;;0.10;0.10;;;;;;;12.72;97.38;102809.38;10538742;28;20068;-61
2021/09/02 02:38:58;;;;;;;0.10;0.10;;;;;;;12.75;97.58;102803.78;10538553;28;20020;-60
2021/09/02 02:43:58;;;;;;;0.10;0.10;;;;;;;12.75;97.03;102809.97;10538375;28;20028;-61
2021/09/02 02:48:59;;;;;;;0.10;0.10;;;;;;;12.74;96.90;102804.72;10538381;28;20031;-61
2021/09/02 02:53:59;;;;;;;0.10;0.10;;;;;;;12.61;96.32;102802.22;10537854;28;20024;-60
2021/09/02 02:58:59;;;;;;;0.10;0.10;;;;;;;12.47;96.58;102800.66;10537554;28;20023;-60
2021/09/02 03:04:00;;;;;;;0.10;0.10;;;;;;;12.39;96.73;102803.06;10537397;28;20036;-60
2021/09/02 03:09:02;;;;;;;0.10;0.10;;;;;;;12.41;97.39;102795.78;10537211;28;20055;-60
2021/09/02 03:14:03;;;;;;;0.10;0.10;;;;;;;12.49;97.98;102797.88;10537520;28;20078;-61
2021/09/02 03:19:03;;;;;;;0.10;0.10;;;;;;;12.52;97.91;102798.47;10536973;28;20032;-61
2021/09/02 03:24:04;;;;;;;0.10;0.10;;;;;;;12.54;97.55;102791.19;10536353;28;20467;-61
2021/09/02 03:29:04;;;;;;;0.10;0.10;;;;;;;12.51;97.50;102786.06;10536487;28;20024;-61
2021/09/02 03:34:04;;;;;;;0.05;0.05;;;;;;;12.48;97.66;102797.03;10536208;28;20378;-61
2021/09/02 03:39:05;;;;;;;0.10;0.10;;;;;;;12.51;98.10;102802.13;10535962;28;20385;-61
2021/09/02 03:44:05;;;;;;;0.10;0.10;;;;;;;12.53;97.87;102805.50;10536571;28;20028;-61
2021/09/02 03:49:06;;;;;;;0.10;0.10;;;;;;;12.58;98.27;102805.13;10536164;28;20428;-59
2021/09/02 03:54:06;;;;;;;0.10;0.10;;;;;;;12.61;98.33;102803.06;10535425;28;20020;-60
2021/09/02 03:59:06;;;;;;;0.10;0.10;;;;;;;12.66;98.70;102814.22;10535016;28;20020;-61
2021/09/02 04:04:07;;;;;;;0.10;0.10;;;;;;;12.74;98.51;102810.06;10537886;28;20052;-61
2021/09/02 04:09:07;;;;;;;0.10;0.10;;;;;;;12.82;98.29;102818.31;10535471;28;20031;-61
2021/09/02 04:14:07;;;;;;;0.10;0.10;;;;;;;12.90;98.45;102824.75;10535194;28;20023;-61
2021/09/02 04:19:08;;;;;;;0.10;0.10;;;;;;;12.94;97.73;102820.00;10534772;28;20020;-60
2021/09/02 04:24:08;;;;;;;0.10;0.10;;;;;;;12.99;97.79;102807.09;10534319;28;20057;-60
2021/09/02 04:29:09;;;;;;;0.10;0.10;;;;;;;13.05;97.58;102816.44;10534035;28;20032;-61
2021/09/02 04:34:09;;;;;;;0.10;0.10;;;;;;;13.09;97.53;102813.41;10532260;28;20273;-61
2021/09/02 04:39:09;;;;;;;0.10;0.10;;;;;;;13.13;97.41;102814.81;10534382;28;20356;-61
2021/09/02 04:44:09;;;;;;;0.10;0.10;;;;;;;13.21;97.17;102808.00;10522981;28;20012;-61
2021/09/02 04:49:10;;;;;;;0.10;0.10;;;;;;;13.25;97.33;102813.00;10543494;28;20262;-60
2021/09/02 04:54:10;;;;;;;0.00;0.00;;;;;;;13.31;96.99;102817.81;10542707;28;20088;-60
2021/09/02 04:59:10;;;;;;;0.10;0.10;;;;;;;13.36;97.18;102820.97;10542535;28;20028;-61
2021/09/02 05:04:11;;;;;;;0.10;0.10;;;;;;;13.39;97.26;102813.66;10542821;28;20020;-61
2021/09/02 05:09:11;;;;;;;0.10;0.10;;;;;;;13.38;97.15;102818.19;10541939;28;20262;-61
2021/09/02 05:14:11;;;;;;;0.10;0.10;;;;;;;13.40;97.09;102826.06;10541823;28;20103;-60
2021/09/02 05:19:12;;;;;;;0.10;0.10;;;;;;;13.45;97.30;102830.06;10542113;28;20040;-61
2021/09/02 05:24:12;;;;;;;0.10;0.10;;;;;;;13.53;96.56;102824.91;10541862;28;20032;-59
2021/09/02 05:29:12;;;;;;;0.10;0.10;;;;;;;13.62;96.77;102825.13;10541805;28;20262;-60
2021/09/02 05:34:13;;;;;;;0.00;0.00;;;;;;;13.68;96.15;102832.63;10541520;28;20034;-61
2021/09/02 05:39:13;;;;;;;0.10;0.10;;;;;;;13.75;96.13;102831.09;10540997;28;20016;-61
2021/09/02 05:44:14;;;;;;;0.00;0.00;;;;;;;13.80;96.13;102829.72;10541208;28;20020;-60
2021/09/02 05:49:14;;;;;;;0.10;0.10;;;;;;;13.89;95.96;102835.28;10540115;28;20023;-61
2021/09/02 05:54:14;;;;;;;0.10;0.10;;;;;;;13.95;95.80;102843.63;10540955;28;20102;-61
2021/09/02 05:59:15;;;;;;;0.10;0.10;;;;;;;14.06;95.70;102842.72;10552265;22;20091;-60
2021/09/02 06:04:15;;;;;;;0.10;0.10;;;;;;;14.10;95.83;102846.81;10538381;28;20428;-61
2021/09/02 06:09:15;;;;;;;0.10;0.10;;;;;;;14.15;95.69;102857.16;10539390;28;20020;-61
2021/09/02 06:14:16;;;;;;;0.10;0.10;;;;;;;14.21;95.03;102852.09;10538594;28;20023;-61
2021/09/02 06:19:16;;;;;;;0.10;0.10;;;;;;;14.22;94.86;102859.16;10538744;28;20565;-61
2021/09/02 06:24:16;;;;;;;0.10;0.10;;;;;;;14.25;95.20;102866.06;10538251;28;20032;-62
2021/09/02 06:29:17;;;;;;;0.10;0.10;;;;;;;14.30;94.65;102873.72;10536562;28;20043;-61
2021/09/02 06:34:17;;;;;;;0.10;0.10;;;;;;;14.30;93.97;102871.88;10537437;28;20027;-62
2021/09/02 06:39:17;;;;;;;0.10;0.10;;;;;;;14.33;94.05;102879.66;10537938;28;20364;-61
2021/09/02 06:44:18;;;;;;;0.10;0.10;;;;;;;14.41;94.49;102871.81;10537361;28;20016;-62
2021/09/02 06:49:20;;;;;;;0.10;0.10;;;;;;;14.50;93.56;102884.41;10537568;28;20038;-62
2021/09/02 06:54:21;;;;;;;0.10;0.10;;;;;;;14.60;94.05;102872.88;10492255;28;20418;-62
2021/09/02 06:59:21;;;;;;;0.10;0.10;;;;;;;14.68;93.45;102875.75;10445525;28;20044;-61
2021/09/02 07:04:22;;;;;;;0.10;0.10;;;;;;;14.80;93.45;102885.38;10449752;28;20083;-61
2021/09/02 07:09:22;;;;;;;0.10;0.10;;;;;;;14.93;93.91;102885.16;10463791;28;20414;-61
2021/09/02 07:14:22;;;;;;;0.10;0.10;;;;;;;15.03;92.91;102887.84;10450054;28;20025;-60
2021/09/02 07:19:23;;;;;;;0.10;0.10;;;;;;;15.12;91.81;102889.69;10453770;28;20028;-61
2021/09/02 07:24:23;;;;;;;0.10;0.10;;;;;;;15.20;90.87;102897.06;10461847;28;20234;-62
2021/09/02 07:29:24;;;;;;;0.10;0.10;;;;;;;15.24;91.29;102896.66;10459631;28;20029;-62
2021/09/02 07:34:24;;;;;;;0.10;0.10;;;;;;;15.32;90.77;102899.47;10455065;28;20596;-62
2021/09/02 07:39:24;;;;;;;0.10;0.10;;;;;;;15.40;90.75;102904.13;10451376;28;20391;-62
2021/09/02 07:44:25;;;;;;;0.10;0.10;;;;;;;15.51;90.22;102921.97;10456021;28;20017;-61
2021/09/02 07:49:25;;;;;;;0.10;0.10;;;;;;;15.55;90.02;102918.84;10451480;28;20032;-62
2021/09/02 07:54:25;;;;;;;0.10;0.10;;;;;;;15.63;89.40;102919.00;10451775;28;20024;-61
2021/09/02 07:59:26;;;;;;;0.10;0.10;;;;;;;15.75;89.38;102916.19;10456252;28;20032;-60
2021/09/02 08:04:26;;;;;;;0.10;0.10;;;;;;;15.86;89.10;102909.81;10453922;28;20021;-62
2021/09/02 08:09:26;;;;;;;0.10;0.10;;;;;;;15.96;88.48;102903.44;10463074;28;20021;-61
2021/09/02 08:14:27;;;;;;;0.00;0.00;;;;;;;16.20;87.39;102911.03;10449543;28;20036;-61
2021/09/02 08:19:27;;;;;;;0.10;0.10;;;;;;;16.33;86.91;102916.09;10446406;28;20119;-61
2021/09/02 08:24:27;;;;;;;0.00;0.00;;;;;;;16.49;86.88;102918.13;10449042;28;20283;-62
2021/09/02 08:29:28;;;;;;;0.00;0.00;;;;;;;16.53;84.48;102919.56;10465324;28;20029;-62
2021/09/02 08:34:28;;;;;;;0.00;0.00;;;;;;;16.61;83.86;102919.69;10456591;28;20048;-62
2021/09/02 08:39:29;;;;;;;0.00;0.00;;;;;;;16.74;85.20;102922.00;10455933;28;20107;-62
2021/09/02 08:44:29;;;;;;;0.00;0.00;;;;;;;16.95;83.53;102913.72;10488668;28;20044;-61
2021/09/02 08:49:30;;;;;;;0.00;0.00;;;;;;;17.13;84.54;102916.44;10457051;28;20273;-61
2021/09/02 08:54:34;;;;;;;0.10;0.10;;;;;;;17.32;82.18;102913.63;10459932;28;20025;-61
2021/09/02 08:59:34;;;;;;;0.10;0.10;;;;;;;17.42;82.54;102914.41;10458202;28;20028;-60
2021/09/02 09:04:35;;;;;;;0.10;0.10;;;;;;;17.49;81.96;102911.94;10489626;28;20020;-61
2021/09/02 09:09:35;;;;;;;0.00;0.00;;;;;;;17.65;81.04;102909.38;10485028;28;20056;-61
2021/09/02 09:14:37;;;;;;;0.10;0.10;;;;;;;17.91;82.21;102907.75;10456067;28;20017;-61
2021/09/02 09:19:50;;;;;;;0.00;0.00;;;;;;;18.06;77.49;102916.97;10460590;28;20029;-61
2021/09/02 09:24:59;;;;;;;0.10;0.10;;;;;;;18.03;74.16;102912.72;10471983;28;20056;-61
2021/09/02 09:30:11;;;;;;;0.10;0.10;;;;;;;17.97;77.09;102923.31;10480890;28;20459;-61
2021/09/02 09:35:16;;;;;;;0.10;0.10;;;;;;;18.02;76.63;102919.13;10457640;28;20021;-61
2021/09/02 09:40:16;;;;;;;0.00;0.00;;;;;;;18.01;74.11;102914.75;10469423;28;20059;-62
2021/09/02 09:45:31;;;;;;;0.00;0.00;;;;;;;18.00;73.38;102923.84;10454540;28;20045;-60
2021/09/02 09:50:31;;;;;;;0.00;0.00;;;;;;;17.98;75.25;102928.56;10495395;28;20024;-61
2021/09/02 09:55:32;;;;;;;0.00;0.00;;;;;;;17.98;74.51;102925.03;10477473;28;20020;-61
2021/09/02 10:00:32;;;;;;;0.00;0.00;;;;;;;17.93;72.98;102944.34;10455043;28;20123;-61
2021/09/02 10:05:33;;;;;;;0.00;0.00;;;;;;;17.77;76.21;102944.16;10459914;28;20025;-61
2021/09/02 10:10:33;;;;;;;0.10;0.10;;;;;;;17.73;75.75;102938.25;10467444;28;20025;-61
2021/09/02 10:15:55;;;;;;;0.03;0.03;;;;;;;17.63;75.44;102946.44;10452303;28;20025;-61
2021/09/02 10:21:07;;;;;;;0.00;0.00;;;;;;;17.57;75.58;102943.47;10513554;28;20083;-61
2021/09/02 10:26:34;;;;;;;0.10;0.10;;;;;;;17.38;75.27;102945.31;10534613;28;20024;-61
2021/09/02 10:31:35;;;;;;;0.10;0.10;;;;;;;17.28;75.16;102944.56;10531638;28;20433;-61
2021/09/02 10:36:39;;;;;;;0.10;0.10;;;;;;;17.36;77.07;102947.31;10534840;28;20069;-61
2021/09/02 10:41:40;;;;;;;0.00;0.00;;;;;;;17.51;76.52;102939.59;10468269;28;20029;-58
2021/09/02 10:46:46;;;;;;;0.10;0.10;;;;;;;17.58;76.25;102942.50;10473157;28;20020;-61
2021/09/02 10:52:11;;;;;;;0.00;0.00;;;;;;;17.63;75.90;102938.34;10493712;28;20509;-58
2021/09/02 10:57:12;;;;;;;0.10;0.10;;;;;;;17.56;73.80;102942.63;10456184;28;20139;-60
2021/09/02 11:02:15;;;;;;;0.00;0.00;;;;;;;17.54;73.90;102949.19;10479556;28;20021;-60
2021/09/02 11:07:16;;;;;;;0.10;0.10;;;;;;;17.67;75.67;102963.13;10455097;28;20503;-58
2021/09/02 11:12:16;;;;;;;0.10;0.10;;;;;;;17.87;75.21;102963.84;10483461;28;20078;-61
2021/09/02 11:17:17;;;;;;;0.10;0.10;;;;;;;18.01;74.22;102959.75;10456422;28;20032;-61
2021/09/02 11:22:18;;;;;;;0.00;0.00;;;;;;;18.13;73.56;102957.66;10451810;28;20267;-61
2021/09/02 11:27:29;;;;;;;0.00;0.00;;;;;;;18.20;73.74;102946.06;10462593;28;20070;-61
2021/09/02 11:32:29;;;;;;;0.00;0.00;;;;;;;18.26;73.55;102950.81;10462187;28;20028;-60
2021/09/02 11:37:41;;;;;;;0.10;0.10;;;;;;;18.38;74.43;102946.00;10491872;28;20024;-61
2021/09/02 11:42:42;;;;;;;0.00;0.00;;;;;;;18.60;73.42;102941.09;10459745;28;20314;-61
2021/09/02 11:47:42;;;;;;;0.00;0.00;;;;;;;18.78;72.95;102944.56;10451941;28;20206;-61
2021/09/02 11:52:51;;;;;;;0.03;0.03;;;;;;;18.78;70.56;102944.56;10454425;28;20025;-60
2021/09/02 11:57:53;;;;;;;0.00;0.00;;;;;;;18.51;70.53;102938.34;10455852;28;20033;-61
2021/09/02 12:02:57;;;;;;;0.00;0.00;;;;;;;18.37;72.70;102941.63;10450853;28;20025;-59
2021/09/02 12:07:58;;;;;;;0.00;0.00;;;;;;;18.37;71.29;102936.22;10431618;28;20104;-61
2021/09/02 12:13:21;;;;;;;0.10;0.10;;;;;;;18.25;72.44;102935.66;10458459;28;20111;-61
2021/09/02 12:18:29;;;;;;;0.00;0.00;;;;;;;18.32;72.67;102943.94;10449784;28;20260;-61
2021/09/02 12:23:29;;;;;;;0.10;0.10;;;;;;;18.29;73.61;102953.19;10432849;28;20021;-61
2021/09/02 12:28:32;;;;;;;0.10;0.10;;;;;;;18.37;71.67;102932.69;10455289;28;20430;-58
2021/09/02 12:33:32;;;;;;;0.10;0.10;;;;;;;18.53;70.63;102941.72;10470120;28;20052;-61
2021/09/02 12:38:37;;;;;;;0.10;0.10;;;;;;;18.58;69.53;102927.72;10450521;28;20060;-59
2021/09/02 12:43:37;;;;;;;0.00;0.00;;;;;;;18.62;72.48;102933.69;10452099;28;20115;-60
2021/09/02 12:48:38;;;;;;;0.10;0.10;;;;;;;18.70;68.55;102922.91;10463573;28;20620;-59
2021/09/02 12:53:39;;;;;;;0.10;0.10;;;;;;;18.68;70.57;102917.69;10450428;28;20239;-60
2021/09/02 12:58:39;;;;;;;0.10;0.10;;;;;;;18.71;70.67;102916.50;10457118;28;20021;-61
2021/09/02 13:03:39;;;;;;;0.00;0.00;;;;;;;18.78;72.43;102912.16;10457988;28;20391;-61
2021/09/02 13:08:40;;;;;;;0.10;0.10;;;;;;;18.80;69.70;102910.16;10462717;28;20090;-61
2021/09/02 13:13:40;;;;;;;0.10;0.10;;;;;;;18.85;71.71;102899.72;10455787;28;20357;-60
2021/09/02 13:18:40;;;;;;;0.00;0.00;;;;;;;18.81;69.85;102894.81;10456170;28;20021;-61
2021/09/02 13:23:41;;;;;;;0.00;0.00;;;;;;;18.60;70.32;102887.94;10465665;28;20021;-60
2021/09/02 13:28:41;;;;;;;0.10;0.10;;;;;;;18.37;71.14;102884.13;10467949;28;20029;-61
2021/09/02 13:33:41;;;;;;;0.00;0.00;;;;;;;18.24;71.84;102887.28;10459819;28;20028;-61
2021/09/02 13:38:42;;;;;;;0.10;0.10;;;;;;;18.17;72.34;102886.19;10458832;28;20016;-61
2021/09/02 13:43:42;;;;;;;0.10;0.10;;;;;;;18.12;72.44;102883.97;10460030;28;20459;-61
2021/09/02 13:48:43;;;;;;;0.00;0.00;;;;;;;18.07;73.12;102868.28;10455439;28;20028;-61
2021/09/02 13:53:43;;;;;;;0.10;0.10;;;;;;;18.03;72.28;102869.59;10454517;28;20044;-61
2021/09/02 13:58:43;;;;;;;0.10;0.10;;;;;;;17.99;72.77;102868.22;10454591;28;20504;-61
2021/09/02 14:03:44;;;;;;;0.10;0.10;;;;;;;18.03;72.76;102861.50;10458914;28;20507;-60
2021/09/02 14:08:44;;;;;;;0.10;0.10;;;;;;;18.12;72.47;102865.09;10477535;28;20029;-61
2021/09/02 14:13:44;;;;;;;0.08;0.08;;;;;;;18.10;71.39;102851.78;10456182;28;20078;-61
2021/09/02 14:18:44;;;;;;;0.00;0.00;;;;;;;18.08;71.75;102855.63;10454012;28;20021;-60
2021/09/02 14:23:45;;;;;;;0.10;0.10;;;;;;;18.04;71.84;102855.13;10460759;28;20021;-62
2021/09/02 14:28:45;;;;;;;0.00;0.00;;;;;;;17.94;70.53;102848.97;10460659;28;20025;-61
2021/09/02 14:33:46;;;;;;;0.10;0.10;;;;;;;17.97;72.17;102843.25;10456032;28;20025;-61
2021/09/02 14:38:46;;;;;;;0.00;0.00;;;;;;;18.03;72.60;102841.78;10455916;28;20090;-61
2021/09/02 14:43:46;;;;;;;0.10;0.10;;;;;;;18.11;71.34;102844.53;10471305;28;20025;-61
2021/09/02 14:48:46;;;;;;;0.10;0.10;;;;;;;18.19;71.71;102830.25;10453004;28;20033;-61
2021/09/02 14:53:47;;;;;;;0.00;0.00;;;;;;;18.29;71.79;102833.66;10455941;28;20021;-61
2021/09/02 14:58:47;;;;;;;0.00;0.00;;;;;;;18.26;72.03;102837.53;10438288;28;20034;-61
2021/09/02 15:03:47;;;;;;;0.00;0.00;;;;;;;18.18;70.08;102833.94;10456869;28;20075;-61
2021/09/02 15:08:47;;;;;;;0.00;0.00;;;;;;;18.13;70.67;102837.13;10460401;28;20032;-61
2021/09/02 15:13:48;;;;;;;0.03;0.03;;;;;;;18.04;71.20;102828.16;10448918;28;20025;-61
2021/09/02 15:18:48;;;;;;;0.00;0.00;;;;;;;17.97;71.86;102824.38;10450993;28;20067;-61
2021/09/02 15:23:48;;;;;;;0.00;0.00;;;;;;;17.88;71.93;102822.66;10518430;28;20032;-61
2021/09/02 15:28:49;;;;;;;0.10;0.10;;;;;;;17.85;70.90;102831.06;10536084;28;20031;-62
2021/09/02 15:33:49;;;;;;;0.10;0.10;;;;;;;17.82;73.42;102834.91;10524199;28;20016;-60
2021/09/02 15:38:49;;;;;;;0.00;0.00;;;;;;;17.85;71.80;102836.44;10536168;28;20367;-61
2021/09/02 15:43:51;;;;;;;0.10;0.10;;;;;;;17.83;73.30;102824.97;10533020;28;20179;-61
2021/09/02 15:48:51;;;;;;;0.00;0.00;;;;;;;17.80;72.40;102818.06;10519976;28;20039;-61
2021/09/02 15:53:52;;;;;;;0.00;0.00;;;;;;;17.74;71.26;102817.81;10531437;28;20119;-61
2021/09/02 15:58:52;;;;;;;0.00;0.00;;;;;;;17.69;72.58;102817.47;10534410;28;20501;-61
2021/09/02 16:03:52;;;;;;;0.10;0.10;;;;;;;17.72;72.54;102809.06;10534295;28;20506;-61
2021/09/02 16:08:52;;;;;;;0.00;0.00;;;;;;;17.71;72.53;102793.88;10534368;28;20028;-61
2021/09/02 16:13:53;;;;;;;0.00;0.00;;;;;;;17.68;72.16;102794.19;10534153;28;20016;-62
2021/09/02 16:18:53;;;;;;;0.10;0.10;;;;;;;17.63;72.24;102791.97;10534220;28;20031;-61
2021/09/02 16:23:53;;;;;;;0.10;0.10;;;;;;;17.56;72.65;102780.97;10507101;28;20031;-59
2021/09/02 16:28:54;;;;;;;0.10;0.10;;;;;;;17.55;73.48;102781.97;10534809;28;20115;-58
2021/09/02 16:33:54;;;;;;;0.00;0.00;;;;;;;17.54;73.14;102772.22;10532390;28;20297;-60
2021/09/02 16:38:54;;;;;;;0.00;0.00;;;;;;;17.53;72.99;102765.13;10533086;28;20054;-59
2021/09/02 16:43:55;;;;;;;0.10;0.10;;;;;;;17.50;73.54;102753.81;10533291;28;20028;-60
2021/09/02 16:48:56;;;;;;;0.10;0.10;;;;;;;17.41;71.93;102752.91;10533659;28;20024;-59
2021/09/02 16:53:56;;;;;;;0.00;0.00;;;;;;;17.36;72.82;102749.84;10519995;28;20528;-58
2021/09/02 16:58:57;;;;;;;0.10;0.10;;;;;;;17.30;75.26;102761.25;10533631;28;20048;-59
2021/09/02 17:03:58;;;;;;;0.10;0.10;;;;;;;17.23;75.30;102755.66;10532591;28;20024;-59
2021/09/02 17:08:58;;;;;;;0.10;0.10;;;;;;;17.16;75.29;102747.34;10530049;28;20020;-59
2021/09/02 17:13:58;;;;;;;0.10;0.10;;;;;;;17.05;75.22;102742.22;10532732;28;20028;-59
2021/09/02 17:18:59;;;;;;;0.10;0.10;;;;;;;16.94;74.84;102743.28;10529791;28;20050;-57
2021/09/02 17:23:59;;;;;;;0.10;0.10;;;;;;;16.85;74.50;102727.22;10497096;28;20024;-60
2021/09/02 17:29:01;;;;;;;0.10;0.10;;;;;;;16.77;74.41;102733.38;10449261;28;20070;-60
2021/09/02 17:34:01;;;;;;;0.00;0.00;;;;;;;16.69;74.20;102719.78;10449213;28;20256;-59
2021/09/02 17:39:02;;;;;;;0.10;0.10;;;;;;;16.63;74.27;102715.03;10447511;28;20024;-62
2021/09/02 17:44:03;;;;;;;0.00;0.00;;;;;;;16.58;75.18;102720.03;10481797;28;20016;-62
2021/09/02 17:49:04;;;;;;;0.10;0.10;;;;;;;16.53;76.03;102717.81;10533565;28;20023;-62
2021/09/02 17:54:05;;;;;;;0.10;0.10;;;;;;;16.42;76.31;102708.09;10533089;28;20020;-62
2021/09/02 17:59:05;;;;;;;0.00;0.00;;;;;;;16.38;75.29;102705.88;10548106;22;20085;-61
2021/09/02 18:04:06;;;;;;;0.00;0.00;;;;;;;16.34;76.18;102715.22;10533246;28;20034;-61
2021/09/02 18:09:06;;;;;;;0.10;0.10;;;;;;;16.28;76.92;102714.00;10497213;28;20553;-61
2021/09/02 18:14:06;;;;;;;0.10;0.10;;;;;;;16.20;76.99;102722.81;10485086;28;20415;-62
2021/09/02 18:19:06;;;;;;;0.10;0.10;;;;;;;16.18;76.86;102721.28;10479274;28;20032;-60
2021/09/02 18:24:07;;;;;;;0.10;0.10;;;;;;;16.13;77.79;102716.34;10453329;28;20037;-60
2021/09/02 18:29:08;;;;;;;0.00;0.00;;;;;;;16.07;77.54;102714.25;10461298;28;20020;-60
2021/09/02 18:34:10;;;;;;;0.10;0.10;;;;;;;16.03;77.42;102707.50;10462475;28;20074;-61
2021/09/02 18:39:10;;;;;;;0.10;0.10;;;;;;;16.00;77.20;102710.50;10453245;28;20032;-60
2021/09/02 18:44:15;;;;;;;0.10;0.10;;;;;;;16.00;78.55;102710.50;10453536;28;20055;-59
2021/09/02 18:49:19;;;;;;;0.10;0.10;;;;;;;15.97;78.59;102710.75;10467550;28;20025;-60
2021/09/02 18:54:19;;;;;;;0.10;0.10;;;;;;;15.91;78.96;102712.22;10481582;28;20052;-60
2021/09/02 18:59:21;;;;;;;0.10;0.10;;;;;;;15.88;79.19;102717.03;10491048;28;20428;-61
2021/09/02 19:04:23;;;;;;;0.10;0.10;;;;;;;15.83;79.94;102707.59;10467408;28;20051;-60
2021/09/02 19:09:30;;;;;;;0.10;0.10;;;;;;;15.77;80.25;102702.81;10452817;28;20021;-59
2021/09/02 19:14:32;;;;;;;0.00;0.00;;;;;;;15.72;79.40;102706.91;10457186;28;20021;-59
2021/09/02 19:19:42;;;;;;;0.03;0.03;;;;;;;15.66;79.56;102692.22;10461731;28;20075;-61
2021/09/02 19:24:44;;;;;;;0.10;0.10;;;;;;;15.63;79.10;102689.81;10451005;28;20454;-60
2021/09/02 19:29:47;;;;;;;0.10;0.10;;;;;;;15.59;77.93;102697.31;10479770;28;20028;-57
2021/09/02 19:34:51;;;;;;;0.10;0.10;;;;;;;15.57;78.69;102693.94;10460841;28;20071;-59
2021/09/02 19:39:52;;;;;;;;;;;;;;;15.55;79.02;102685.16;10475141;28;20024;-60
2021/09/02 19:44:53;;;;;;;0.00;0.00;;;;;;;15.53;79.54;102680.94;10469690;28;20395;-61
2021/09/02 19:49:54;;;;;;;0.00;0.00;;;;;;;15.48;79.06;102681.38;10469243;28;20035;-61
2021/09/02 19:54:54;;;;;;;0.10;0.10;;;;;;;15.47;79.67;102681.53;10455669;28;20400;-62
2021/09/02 20:00:04;;;;;;;0.10;0.10;;;;;;;15.45;79.61;102680.84;10474443;28;20028;-60
2021/09/02 20:05:06;;;;;;;0.00;0.00;;;;;;;15.43;78.65;102674.75;10459506;28;20039;-60
2021/09/02 20:10:07;;;;;;;0.05;0.05;;;;;;;15.37;78.92;102677.03;10465468;28;20021;-61
2021/09/02 20:15:08;;;;;;;0.10;0.10;;;;;;;15.28;79.38;102674.38;10463054;28;20530;-58
2021/09/02 20:20:11;;;;;;;0.10;0.10;;;;;;;15.09;79.25;102676.09;10462083;28;20028;-61
2021/09/02 20:25:12;;;;;;;0.10;0.10;;;;;;;14.87;80.00;102668.38;10478875;28;20459;-60
2021/09/02 20:30:13;;;;;;;0.10;0.10;;;;;;;14.64;80.67;102663.28;10458376;28;20350;-60
2021/09/02 20:35:19;;;;;;;0.00;0.00;;;;;;;14.41;81.51;102656.47;10452654;28;20082;-61
2021/09/02 20:40:24;;;;;;;0.10;0.10;;;;;;;14.18;82.67;102655.88;10456661;28;20074;-62
2021/09/02 20:45:30;;;;;;;0.10;0.10;;;;;;;13.96;83.52;102655.13;10478434;28;20021;-61
2021/09/02 20:50:32;;;;;;;0.10;0.10;;;;;;;13.76;84.00;102646.19;10476923;28;20112;-60
2021/09/02 20:55:35;;;;;;;0.10;0.10;;;;;;;13.63;84.63;102653.59;10486741;28;20024;-60
2021/09/02 21:00:36;;;;;;;0.10;0.10;;;;;;;13.48;85.56;102649.59;10486966;28;20031;-62
2021/09/02 21:05:37;;;;;;;0.10;0.10;;;;;;;13.35;86.10;102649.78;10469820;28;20031;-59
2021/09/02 21:10:38;;;;;;;0.10;0.10;;;;;;;13.25;86.32;102660.44;10450649;28;20031;-58
2021/09/02 21:15:40;;;;;;;0.10;0.10;;;;;;;13.12;86.65;102649.94;10487255;28;20054;-60
2021/09/02 21:20:55;;;;;;;0.10;0.10;;;;;;;13.00;86.85;102648.31;10460004;28;20017;-59
2021/09/02 21:25:58;;;;;;;0.10;0.10;;;;;;;12.90;87.78;102647.38;10454439;28;20017;-60
2021/09/02 21:31:11;;;;;;;0.10;0.10;;;;;;;12.81;88.27;102651.69;10464854;28;20306;-59
2021/09/02 21:36:13;;;;;;;0.10;0.10;;;;;;;12.76;88.79;102655.72;10474315;28;20026;-61
2021/09/02 21:41:22;;;;;;;0.10;0.10;;;;;;;12.71;89.00;102657.91;10464423;28;20487;-60
2021/09/02 21:46:38;;;;;;;0.10;0.10;;;;;;;12.66;89.02;102653.81;10464326;28;20060;-61
2021/09/02 21:51:39;;;;;;;0.10;0.10;;;;;;;12.63;89.75;102651.41;10448305;28;20518;-61
2021/09/02 21:56:42;;;;;;;0.10;0.10;;;;;;;12.57;90.25;102648.41;10494990;28;20028;-61
2021/09/02 22:01:44;;;;;;;0.10;0.10;;;;;;;12.55;91.03;102653.88;10484186;28;20021;-60
2021/09/02 22:06:45;;;;;;;0.10;0.10;;;;;;;12.53;90.91;102646.94;10466609;28;20074;-60
2021/09/02 22:11:57;;;;;;;0.10;0.10;;;;;;;12.48;91.36;102633.09;10457488;28;20019;-61
2021/09/02 22:17:18;;;;;;;0.08;0.08;;;;;;;12.41;91.88;102638.13;10474156;28;20342;-60
2021/09/02 22:22:22;;;;;;;0.10;0.10;;;;;;;12.41;92.50;102630.94;10460478;28;20418;-61
2021/09/02 22:27:23;;;;;;;0.10;0.10;;;;;;;12.40;92.33;102639.94;10481836;28;20073;-61
2021/09/02 22:32:26;;;;;;;0.10;0.10;;;;;;;12.38;92.52;102636.53;10456263;28;20071;-58
2021/09/02 22:37:29;;;;;;;0.10;0.10;;;;;;;12.34;92.08;102642.28;10453783;28;20020;-60
2021/09/02 22:42:31;;;;;;;0.10;0.10;;;;;;;12.27;92.44;102635.72;10473987;28;20020;-60
2021/09/02 22:47:33;;;;;;;0.00;0.00;;;;;;;12.19;92.56;102626.53;10494889;28;20027;-61
2021/09/02 22:52:34;;;;;;;0.00;0.00;;;;;;;12.17;92.60;102627.63;10482140;28;20047;-60
2021/09/02 22:57:34;;;;;;;0.10;0.10;;;;;;;12.08;92.03;102626.56;10457158;28;20025;-61
2021/09/02 23:02:35;;;;;;;0.10;0.10;;;;;;;11.97;92.42;102615.91;10461223;28;20020;-59
2021/09/02 23:07:52;;;;;;;0.10;0.10;;;;;;;11.88;92.57;102622.00;10493694;28;20012;-60